Time;durP1;ratioP1;P1;durP2;ratioP2;P2;SDS_P1;SDS_P2;PMS_P1;PMS_P2;Temp;Humidity;BMP_temperature;BMP_pressure;BME280_temperature;BME280_humidity;BME280_pressure;Samples;Min_cycle;Max_cycle;Signal;HPM_P1;HPM_P2
2021/08/05 00:01:08;;;;;;;;;;;18.20;99.90;;;;;;5113333;28;19907;-82
2021/08/05 00:03:33;;;;;;;;;;;18.20;99.90;;;;;;5115422;28;19961;-82
2021/08/05 00:05:59;;;;;;;;;;;18.10;99.90;;;;;;5115129;28;20340;-82
2021/08/05 00:08:24;;;;;;;;;;;18.10;99.90;;;;;;5115592;28;19915;-82
2021/08/05 00:10:50;;;;;;;;;;;18.20;99.90;;;;;;5119576;28;19908;-82
2021/08/05 00:13:15;;;;;;;;;;;18.10;99.90;;;;;;5117382;28;20333;-82
2021/08/05 00:15:41;;;;;;;;;;;18.10;99.90;;;;;;5117430;28;19983;-81
2021/08/05 00:18:06;;;;;;;;;;;18.10;99.90;;;;;;5119287;28;19977;-82
2021/08/05 00:20:32;;;;;;;;;;;18.10;99.90;;;;;;5118388;28;20055;-83
2021/08/05 00:22:57;;;;;;;;;;;18.10;99.90;;;;;;5118809;28;20057;-82
2021/08/05 00:25:23;;;;;;;;;;;18.10;99.90;;;;;;5117416;28;19955;-82
2021/08/05 00:27:48;;;;;;;;;;;18.00;99.90;;;;;;5117805;28;19997;-81
2021/08/05 00:30:14;;;;;;;;;;;18.00;99.90;;;;;;5118692;28;20372;-82
2021/08/05 00:32:39;;;;;;;;;;;18.10;99.90;;;;;;5117201;28;19973;-82
2021/08/05 00:35:05;;;;;;;;;;;18.00;99.90;;;;;;5118358;28;20003;-82
2021/08/05 00:37:31;;;;;;;;;;;18.00;99.90;;;;;;5117474;28;20014;-82
2021/08/05 00:39:57;;;;;;;;;;;18.00;99.90;;;;;;5117127;28;19915;-82
2021/08/05 00:42:22;;;;;;;;;;;18.00;99.90;;;;;;5116793;28;19912;-83
2021/08/05 00:44:48;;;;;;;;;;;17.90;99.90;;;;;;5116014;28;19911;-82
2021/08/05 00:47:13;;;;;;;;;;;17.90;99.90;;;;;;5116313;28;20018;-82
2021/08/05 00:49:39;;;;;;;;;;;17.90;99.90;;;;;;5115794;28;19908;-82
2021/08/05 00:52:05;;;;;;;;;;;17.90;99.90;;;;;;5117342;28;20009;-82
2021/08/05 00:54:30;;;;;;;;;;;17.90;99.90;;;;;;5117727;28;20287;-83
2021/08/05 00:56:56;;;;;;;;;;;17.90;99.90;;;;;;5118132;28;19908;-82
2021/08/05 00:59:21;;;;;;;;;;;17.90;99.90;;;;;;5115382;28;20423;-82
2021/08/05 01:01:51;;;;;;;;;;;17.90;99.90;;;;;;5116393;28;19908;-82
2021/08/05 01:04:16;;;;;;;;;;;17.90;99.90;;;;;;5117598;28;19908;-81
2021/08/05 01:06:47;;;;;;;;;;;17.90;99.90;;;;;;5115924;28;19930;-83
2021/08/05 01:09:45;;;;;;;;;;;17.90;99.90;;;;;;5116173;28;20301;-81
2021/08/05 01:12:18;;;;;;;;;;;17.90;99.90;;;;;;5060009;28;19998;-81
2021/08/05 01:14:44;;;;;;;;;;;17.90;99.90;;;;;;5114904;28;19918;-81
2021/08/05 01:17:10;;;;;;;;;;;17.90;99.90;;;;;;5115037;28;20348;-82
2021/08/05 01:19:40;;;;;;;;;;;17.80;99.90;;;;;;5115718;27;19999;-82
2021/08/05 01:22:24;;;;;;;;;;;17.80;99.90;;;;;;5114935;28;19947;-82
2021/08/05 01:25:03;;;;;;;;;;;17.90;99.90;;;;;;5115990;28;20034;-81
2021/08/05 01:27:29;;;;;;;;;;;17.80;99.90;;;;;;5115135;28;19912;-82
2021/08/05 01:29:55;;;;;;;;;;;17.80;99.90;;;;;;5114250;28;19908;-82
2021/08/05 01:32:21;;;;;;;;;;;17.80;99.90;;;;;;5116043;27;20364;-81
2021/08/05 01:34:46;;;;;;;;;;;17.80;99.90;;;;;;5114659;28;19923;-82
2021/08/05 01:37:12;;;;;;;;;;;17.80;99.90;;;;;;5116596;28;19915;-82
2021/08/05 01:39:39;;;;;;;;;;;17.70;99.90;;;;;;5114387;28;19907;-81
2021/08/05 01:42:05;;;;;;;;;;;17.80;99.90;;;;;;5115615;28;19953;-81
2021/08/05 01:44:31;;;;;;;;;;;17.70;99.90;;;;;;5116130;28;19994;-82
2021/08/05 01:46:57;;;;;;;;;;;17.70;99.90;;;;;;5115888;28;19943;-82
2021/08/05 01:49:23;;;;;;;;;;;17.70;99.90;;;;;;5113855;28;19997;-82
2021/08/05 01:51:49;;;;;;;;;;;17.70;99.90;;;;;;5115908;28;19915;-81
2021/08/05 01:54:14;;;;;;;;;;;17.70;99.90;;;;;;5114064;28;19908;-81
2021/08/05 01:56:40;;;;;;;;;;;17.70;99.90;;;;;;5114252;28;20418;-81
2021/08/05 01:59:05;;;;;;;;;;;17.70;99.90;;;;;;5113786;28;20186;-82
2021/08/05 02:01:31;;;;;;;;;;;17.70;99.90;;;;;;5115751;28;19908;-82
2021/08/05 02:04:06;;;;;;;;;;;17.70;99.90;;;;;;5114719;28;19915;-81
2021/08/05 02:06:35;;;;;;;;;;;17.70;99.90;;;;;;5114301;28;19914;-81
2021/08/05 02:09:02;;;;;;;;;;;17.70;99.90;;;;;;5112594;28;19908;-82
2021/08/05 02:11:30;;;;;;;;;;;17.70;99.90;;;;;;5112834;28;19908;-82
2021/08/05 02:13:58;;;;;;;;;;;17.70;99.90;;;;;;5115067;28;19908;-81
2021/08/05 02:16:25;;;;;;;;;;;17.70;99.90;;;;;;5113872;28;19912;-82
2021/08/05 02:18:51;;;;;;;;;;;17.70;99.90;;;;;;5113812;28;19908;-82
2021/08/05 02:21:19;;;;;;;;;;;17.60;99.90;;;;;;5113707;28;19931;-82
2021/08/05 02:23:46;;;;;;;;;;;17.60;99.90;;;;;;5113869;28;19939;-82
2021/08/05 02:26:11;;;;;;;;;;;17.60;99.90;;;;;;5115396;28;19915;-81
2021/08/05 02:28:37;;;;;;;;;;;17.60;99.90;;;;;;5113698;28;20503;-81
2021/08/05 02:31:03;;;;;;;;;;;17.60;99.90;;;;;;5113519;28;19959;-81
2021/08/05 02:33:30;;;;;;;;;;;17.60;99.90;;;;;;5113575;28;20650;-82
2021/08/05 02:35:56;;;;;;;;;;;17.60;99.90;;;;;;5113938;28;20261;-81
2021/08/05 02:38:21;;;;;;;;;;;17.60;99.90;;;;;;5113741;28;19970;-81
2021/08/05 02:40:48;;;;;;;;;;;17.60;99.90;;;;;;5114442;28;19967;-82
2021/08/05 02:43:14;;;;;;;;;;;17.60;99.90;;;;;;5113549;28;19911;-81
2021/08/05 02:45:40;;;;;;;;;;;17.60;99.90;;;;;;5114973;28;19908;-82
2021/08/05 02:48:06;;;;;;;;;;;17.60;99.90;;;;;;5114862;28;19908;-82
2021/08/05 02:50:32;;;;;;;;;;;17.60;99.90;;;;;;5114216;28;19925;-81
2021/08/05 02:52:58;;;;;;;;;;;17.60;99.90;;;;;;5113033;28;20024;-82
2021/08/05 02:55:24;;;;;;;;;;;17.60;99.90;;;;;;5113035;28;20018;-82
2021/08/05 02:57:51;;;;;;;;;;;17.70;99.90;;;;;;5113587;28;19908;-82
2021/08/05 03:00:17;;;;;;;;;;;17.70;99.90;;;;;;5114396;28;20405;-81
2021/08/05 03:02:43;;;;;;;;;;;17.70;99.90;;;;;;5114633;28;19908;-82
2021/08/05 03:05:09;;;;;;;;;;;17.70;99.90;;;;;;5114612;28;20391;-81
2021/08/05 03:07:35;;;;;;;;;;;17.70;99.90;;;;;;5113145;28;19908;-81
2021/08/05 03:10:00;;;;;;;;;;;17.60;99.90;;;;;;5112633;28;19931;-81
2021/08/05 03:12:26;;;;;;;;;;;17.60;99.90;;;;;;5115086;28;20409;-82
2021/08/05 03:14:51;;;;;;;;;;;17.60;99.90;;;;;;5114546;28;20494;-82
2021/08/05 03:17:17;;;;;;;;;;;17.60;99.90;;;;;;5115431;28;19908;-82
2021/08/05 03:19:42;;;;;;;;;;;17.50;99.90;;;;;;5112479;28;19912;-81
2021/08/05 03:22:08;;;;;;;;;;;17.50;99.90;;;;;;5114768;28;19962;-82
2021/08/05 03:24:33;;;;;;;;;;;17.50;99.90;;;;;;5113069;28;19907;-81
2021/08/05 03:26:59;;;;;;;;;;;17.50;99.90;;;;;;5113614;28;19919;-81
2021/08/05 03:29:24;;;;;;;;;;;17.50;99.90;;;;;;5112677;28;20006;-82
2021/08/05 03:31:50;;;;;;;;;;;17.50;99.90;;;;;;5114198;28;19908;-81
2021/08/05 03:34:15;;;;;;;;;;;17.50;99.90;;;;;;5112711;28;20379;-82
2021/08/05 03:36:41;;;;;;;;;;;17.40;99.90;;;;;;5114372;28;19912;-81
2021/08/05 03:39:06;;;;;;;;;;;17.40;99.90;;;;;;5113353;28;19908;-82
2021/08/05 03:41:32;;;;;;;;;;;17.50;99.90;;;;;;5113780;28;19915;-82
2021/08/05 03:43:57;;;;;;;;;;;17.50;99.90;;;;;;5118813;28;19907;-82
2021/08/05 03:46:23;;;;;;;;;;;17.50;99.90;;;;;;5118786;28;20253;-81
2021/08/05 03:48:48;;;;;;;;;;;17.40;99.90;;;;;;5117099;28;19908;-81
2021/08/05 03:51:14;;;;;;;;;;;17.40;99.90;;;;;;5118385;28;19908;-81
2021/08/05 03:53:39;;;;;;;;;;;17.40;99.90;;;;;;5116921;28;20399;-81
2021/08/05 03:56:05;;;;;;;;;;;17.40;99.90;;;;;;5118250;28;20387;-81
2021/08/05 03:58:30;;;;;;;;;;;17.40;99.90;;;;;;5117032;28;19908;-81
2021/08/05 04:00:56;;;;;;;;;;;17.40;99.90;;;;;;5116213;28;19908;-81
2021/08/05 04:03:21;;;;;;;;;;;17.40;99.90;;;;;;5117199;28;20010;-82
2021/08/05 04:05:47;;;;;;;;;;;17.40;99.90;;;;;;5117995;28;19908;-81
2021/08/05 04:08:12;;;;;;;;;;;17.40;99.90;;;;;;5118143;28;19907;-82
2021/08/05 04:10:38;;;;;;;;;;;17.40;99.90;;;;;;5117450;28;19915;-81
2021/08/05 04:13:04;;;;;;;;;;;17.40;99.90;;;;;;5118776;28;19915;-82
2021/08/05 04:15:29;;;;;;;;;;;17.40;99.90;;;;;;5116698;28;19912;-81
2021/08/05 04:17:55;;;;;;;;;;;17.40;99.90;;;;;;5116185;28;19908;-81
2021/08/05 04:20:21;;;;;;;;;;;17.30;99.90;;;;;;5117410;28;19915;-81
2021/08/05 04:22:47;;;;;;;;;;;17.30;99.90;;;;;;5116159;28;19908;-81
2021/08/05 04:25:13;;;;;;;;;;;17.30;99.90;;;;;;5117804;28;19911;-82
2021/08/05 04:27:39;;;;;;;;;;;17.30;99.90;;;;;;5116760;28;19908;-81
2021/08/05 04:30:09;;;;;;;;;;;17.30;99.90;;;;;;5115502;28;19908;-82
2021/08/05 04:32:35;;;;;;;;;;;17.30;99.90;;;;;;5117502;28;19915;-82
2021/08/05 04:35:00;;;;;;;;;;;17.30;99.90;;;;;;5116204;28;19915;-81
2021/08/05 04:37:26;;;;;;;;;;;17.30;99.90;;;;;;5118469;28;19908;-81
2021/08/05 04:39:51;;;;;;;;;;;17.30;99.90;;;;;;5116193;28;19912;-82
2021/08/05 04:42:16;;;;;;;;;;;17.20;99.90;;;;;;5117358;28;19908;-81
2021/08/05 04:44:42;;;;;;;;;;;17.30;99.90;;;;;;5116324;28;20375;-81
2021/08/05 04:47:08;;;;;;;;;;;17.30;99.90;;;;;;5115871;28;19914;-81
2021/08/05 04:49:33;;;;;;;;;;;17.30;99.90;;;;;;5115378;28;19908;-81
2021/08/05 04:51:59;;;;;;;;;;;17.30;99.90;;;;;;5117300;28;20475;-81
2021/08/05 04:54:24;;;;;;;;;;;17.30;99.90;;;;;;5116318;28;20283;-82
2021/08/05 04:56:50;;;;;;;;;;;17.30;99.90;;;;;;5115784;28;19951;-81
2021/08/05 04:59:15;;;;;;;;;;;17.30;99.90;;;;;;5115000;28;19908;-81
2021/08/05 05:01:43;;;;;;;;;;;17.30;99.90;;;;;;5115387;28;19919;-82
2021/08/05 05:04:08;;;;;;;;;;;17.30;99.90;;;;;;5115418;28;20002;-81
2021/08/05 05:06:34;;;;;;;;;;;17.30;99.90;;;;;;5116668;28;19946;-81
2021/08/05 05:09:00;;;;;;;;;;;17.30;99.90;;;;;;5116145;28;20334;-81
2021/08/05 05:11:25;;;;;;;;;;;17.30;99.90;;;;;;5115228;28;19990;-81
2021/08/05 05:13:50;;;;;;;;;;;17.30;99.90;;;;;;5115386;28;19908;-81
2021/08/05 05:16:16;;;;;;;;;;;17.30;99.90;;;;;;5115212;28;20315;-81
2021/08/05 05:18:41;;;;;;;;;;;17.30;99.90;;;;;;5116424;28;19919;-82
2021/08/05 05:21:07;;;;;;;;;;;17.40;99.90;;;;;;5116077;28;19907;-82
2021/08/05 05:23:33;;;;;;;;;;;17.40;99.90;;;;;;5116340;28;19931;-82
2021/08/05 05:25:58;;;;;;;;;;;17.40;99.90;;;;;;5116884;28;19907;-82
2021/08/05 05:28:24;;;;;;;;;;;17.40;99.90;;;;;;5116210;28;19908;-82
2021/08/05 05:30:50;;;;;;;;;;;17.40;99.90;;;;;;5114199;28;19908;-81
2021/08/05 05:33:16;;;;;;;;;;;17.40;99.90;;;;;;5116246;28;19911;-81
2021/08/05 05:35:42;;;;;;;;;;;17.50;99.90;;;;;;5114851;28;19942;-81
2021/08/05 05:38:07;;;;;;;;;;;17.50;99.90;;;;;;5115160;28;19991;-82
2021/08/05 05:40:33;;;;;;;;;;;17.60;99.90;;;;;;5114392;28;19907;-82
2021/08/05 05:43:00;;;;;;;;;;;17.60;99.90;;;;;;5114843;28;19931;-81
2021/08/05 05:45:26;;;;;;;;;;;17.70;99.90;;;;;;5114642;28;19912;-81
2021/08/05 05:47:52;;;;;;;;;;;17.70;99.90;;;;;;5114675;28;19918;-82
2021/08/05 05:50:18;;;;;;;;;;;17.70;99.90;;;;;;5115943;28;19919;-82
2021/08/05 05:52:44;;;;;;;;;;;17.70;99.90;;;;;;5116100;28;20273;-82
2021/08/05 05:55:09;;;;;;;;;;;17.80;99.90;;;;;;5115750;28;19933;-82
2021/08/05 05:57:35;;;;;;;;;;;17.80;99.90;;;;;;5115119;28;19908;-82
2021/08/05 06:00:01;;;;;;;;;;;17.80;99.90;;;;;;5114104;28;19907;-82
2021/08/05 06:02:26;;;;;;;;;;;17.90;99.90;;;;;;5114941;28;20360;-82
2021/08/05 06:04:52;;;;;;;;;;;17.90;99.90;;;;;;5113711;28;19957;-82
2021/08/05 06:07:17;;;;;;;;;;;17.90;99.90;;;;;;5114635;28;19912;-82
2021/08/05 06:09:43;;;;;;;;;;;17.90;99.90;;;;;;5115098;28;19915;-82
2021/08/05 06:12:08;;;;;;;;;;;17.90;99.90;;;;;;5114797;28;19995;-82
2021/08/05 06:14:34;;;;;;;;;;;17.90;99.90;;;;;;5114810;28;20333;-82
2021/08/05 06:16:59;;;;;;;;;;;17.90;99.90;;;;;;5116600;28;20436;-82
2021/08/05 06:19:25;;;;;;;;;;;18.00;99.90;;;;;;5114796;28;20280;-82
2021/08/05 06:21:50;;;;;;;;;;;18.00;99.90;;;;;;5116091;28;20372;-82
2021/08/05 06:24:16;;;;;;;;;;;18.00;99.90;;;;;;5116414;28;19908;-82
2021/08/05 06:26:42;;;;;;;;;;;18.00;99.90;;;;;;5115885;28;20356;-82
2021/08/05 06:29:08;;;;;;;;;;;18.00;99.90;;;;;;5114162;28;19985;-82
2021/08/05 06:31:34;;;;;;;;;;;18.00;99.90;;;;;;5114015;28;19908;-82
2021/08/05 06:34:01;;;;;;;;;;;18.00;99.90;;;;;;5114301;28;19908;-82
2021/08/05 06:36:26;;;;;;;;;;;18.00;99.90;;;;;;5114382;28;19981;-82
2021/08/05 06:38:52;;;;;;;;;;;18.10;99.90;;;;;;5114357;28;20360;-82
2021/08/05 06:41:17;;;;;;;;;;;18.10;99.90;;;;;;5115992;28;19916;-82
2021/08/05 06:43:43;;;;;;;;;;;18.10;99.90;;;;;;5114709;28;19908;-81
2021/08/05 06:46:08;;;;;;;;;;;18.10;99.90;;;;;;5114867;28;20348;-83
2021/08/05 06:48:34;;;;;;;;;;;18.10;99.90;;;;;;5114764;28;20283;-82
2021/08/05 06:50:59;;;;;;;;;;;18.20;99.90;;;;;;5113759;28;19908;-82
2021/08/05 06:53:25;;;;;;;;;;;18.20;99.90;;;;;;5115735;27;20339;-82
2021/08/05 06:55:50;;;;;;;;;;;18.20;99.90;;;;;;5116418;28;19922;-82
2021/08/05 06:58:19;;;;;;;;;;;18.30;99.90;;;;;;5116095;28;19915;-82
2021/08/05 07:00:48;;;;;;;;;;;18.30;99.90;;;;;;5114340;28;19915;-82
2021/08/05 07:03:14;;;;;;;;;;;18.30;99.90;;;;;;5114446;28;19907;-82
2021/08/05 07:05:40;;;;;;;;;;;18.40;99.90;;;;;;5114117;28;19911;-82
2021/08/05 07:08:05;;;;;;;;;;;18.40;99.90;;;;;;5114405;28;19908;-82
2021/08/05 07:10:31;;;;;;;;;;;18.50;99.90;;;;;;5113249;28;19961;-82
2021/08/05 07:12:56;;;;;;;;;;;18.50;99.90;;;;;;5113982;28;19956;-82
2021/08/05 07:15:22;;;;;;;;;;;18.60;99.90;;;;;;5115169;28;19965;-82
2021/08/05 07:17:48;;;;;;;;;;;18.60;99.90;;;;;;5113765;28;19943;-82
2021/08/05 07:20:14;;;;;;;;;;;18.60;99.90;;;;;;5113402;28;20006;-82
2021/08/05 07:22:43;;;;;;;;;;;18.70;99.90;;;;;;5113918;28;20253;-82
2021/08/05 07:25:09;;;;;;;;;;;18.70;99.90;;;;;;5114683;28;20387;-82
2021/08/05 07:27:39;;;;;;;;;;;18.70;99.90;;;;;;5115462;28;19908;-82
2021/08/05 07:30:05;;;;;;;;;;;18.70;99.90;;;;;;5113746;28;19947;-82
2021/08/05 07:32:31;;;;;;;;;;;18.70;99.90;;;;;;5115248;28;19908;-82
2021/08/05 07:34:56;;;;;;;;;;;18.70;99.90;;;;;;5113932;28;19926;-82
2021/08/05 07:37:22;;;;;;;;;;;18.80;99.90;;;;;;5113689;28;19908;-82
2021/08/05 07:39:48;;;;;;;;;;;18.80;99.90;;;;;;5114202;28;19907;-82
2021/08/05 07:42:15;;;;;;;;;;;18.90;99.90;;;;;;5114668;28;19994;-82
2021/08/05 07:44:41;;;;;;;;;;;18.90;99.90;;;;;;5114874;28;19915;-82
2021/08/05 07:47:08;;;;;;;;;;;18.90;99.90;;;;;;5114438;28;19908;-82
2021/08/05 07:49:33;;;;;;;;;;;19.00;99.90;;;;;;5112187;28;19908;-82
2021/08/05 07:51:59;;;;;;;;;;;19.00;99.90;;;;;;5112815;28;19915;-82
2021/08/05 07:54:24;;;;;;;;;;;19.00;99.90;;;;;;5113594;28;19907;-82
2021/08/05 07:56:49;;;;;;;;;;;19.00;99.90;;;;;;5113188;28;20045;-82
2021/08/05 07:59:15;;;;;;;;;;;19.10;99.90;;;;;;5112533;28;19915;-82
2021/08/05 08:01:40;;;;;;;;;;;19.10;99.90;;;;;;5114021;28;19908;-82
2021/08/05 08:04:06;;;;;;;;;;;19.10;99.90;;;;;;5113777;28;19907;-82
2021/08/05 08:06:31;;;;;;;;;;;19.10;99.90;;;;;;5112986;28;19912;-82
2021/08/05 08:08:57;;;;;;;;;;;19.10;99.90;;;;;;5113760;28;19908;-82
2021/08/05 08:11:23;;;;;;;;;;;19.10;99.90;;;;;;5114667;28;19912;-82
2021/08/05 08:13:49;;;;;;;;;;;19.10;99.90;;;;;;5114293;28;19954;-82
2021/08/05 08:16:15;;;;;;;;;;;19.20;99.90;;;;;;5112571;28;19916;-82
2021/08/05 08:18:40;;;;;;;;;;;19.20;99.90;;;;;;5112749;28;20048;-82
2021/08/05 08:21:06;;;;;;;;;;;19.20;99.90;;;;;;5112350;28;20072;-82
2021/08/05 08:23:31;;;;;;;;;;;19.20;99.90;;;;;;5112576;28;19919;-82
2021/08/05 08:25:57;;;;;;;;;;;19.30;99.90;;;;;;5112924;28;19912;-83
2021/08/05 08:28:22;;;;;;;;;;;19.20;99.90;;;;;;5114946;28;19915;-82
2021/08/05 08:30:48;;;;;;;;;;;19.30;99.90;;;;;;5116203;28;20368;-82
2021/08/05 08:33:13;;;;;;;;;;;19.30;99.90;;;;;;5116705;28;19941;-82
2021/08/05 08:38:12;;;;;;;;;;;19.40;99.90;;;;;;5072993;28;20374;-90
2021/08/05 08:40:38;;;;;;;;;;;19.50;99.90;;;;;;5073933;28;19908;-90
2021/08/05 08:43:05;;;;;;;;;;;19.50;99.90;;;;;;5073921;28;19909;-90
2021/08/05 08:45:31;;;;;;;;;;;19.60;99.90;;;;;;5073724;28;19915;-91
2021/08/05 08:47:58;;;;;;;;;;;19.60;99.90;;;;;;5073766;28;19916;-90
2021/08/05 08:50:28;;;;;;;;;;;19.60;99.90;;;;;;5073424;28;19948;-89
2021/08/05 08:53:04;;;;;;;;;;;19.60;99.90;;;;;;5074948;28;20018;-90
2021/08/05 08:55:29;;;;;;;;;;;19.70;99.90;;;;;;5073634;28;20378;-91
2021/08/05 09:10:41;;;;;;;;;;;19.80;99.70;;;;;;4992579;28;19916;-89
2021/08/05 09:13:07;;;;;;;;;;;19.90;99.40;;;;;;4976629;28;19910;-89
2021/08/05 09:15:40;;;;;;;;;;;19.90;99.20;;;;;;5045289;28;20357;-89
2021/08/05 09:18:24;;;;;;;;;;;20.00;99.00;;;;;;5073599;28;19951;-90
2021/08/05 09:21:08;;;;;;;;;;;20.00;99.20;;;;;;5074065;28;20319;-90
2021/08/05 09:23:53;;;;;;;;;;;20.00;99.30;;;;;;5073147;28;19920;-90
2021/08/05 09:26:22;;;;;;;;;;;20.20;98.30;;;;;;5073002;28;20342;-89
2021/08/05 09:29:07;;;;;;;;;;;20.20;97.50;;;;;;5072833;28;19916;-89
2021/08/05 09:31:33;;;;;;;;;;;20.30;97.90;;;;;;5072929;28;19916;-89
2021/08/05 09:34:09;;;;;;;;;;;20.40;98.00;;;;;;5074077;28;19995;-89
2021/08/05 09:36:37;;;;;;;;;;;20.40;98.00;;;;;;5072947;28;19969;-89
2021/08/05 09:39:22;;;;;;;;;;;20.40;98.10;;;;;;5072604;28;19913;-89
2021/08/05 09:41:55;;;;;;;;;;;20.40;98.20;;;;;;5073217;28;20323;-89
2021/08/05 09:44:21;;;;;;;;;;;20.50;98.00;;;;;;5074336;28;19909;-89
2021/08/05 09:46:46;;;;;;;;;;;20.50;97.80;;;;;;5072586;28;19920;-89
2021/08/05 09:49:16;;;;;;;;;;;20.50;97.80;;;;;;5072899;28;19908;-88
2021/08/05 09:51:41;;;;;;;;;;;20.60;97.70;;;;;;5072597;28;19913;-89
2021/08/05 09:54:07;;;;;;;;;;;20.70;97.70;;;;;;5072826;28;20376;-89
2021/08/05 09:56:35;;;;;;;;;;;20.80;97.00;;;;;;5072321;28;19917;-89
2021/08/05 09:59:11;;;;;;;;;;;20.90;96.70;;;;;;5071988;28;20292;-89
2021/08/05 10:01:54;;;;;;;;;;;21.00;96.30;;;;;;5072339;28;19909;-89
2021/08/05 10:04:27;;;;;;;;;;;21.00;95.90;;;;;;5072340;28;19909;-89
2021/08/05 10:06:58;;;;;;;;;;;21.00;95.90;;;;;;5072082;28;19908;-89
2021/08/05 10:09:23;;;;;;;;;;;21.10;95.90;;;;;;5073890;28;19916;-88
2021/08/05 10:11:49;;;;;;;;;;;21.10;95.80;;;;;;5072492;28;19912;-89
2021/08/05 10:14:23;;;;;;;;;;;21.10;95.90;;;;;;5072708;28;20276;-89
2021/08/05 10:16:50;;;;;;;;;;;21.10;95.50;;;;;;5073476;28;19916;-88
2021/08/05 10:19:17;;;;;;;;;;;21.10;95.90;;;;;;5071823;28;19914;-89
2021/08/05 10:21:43;;;;;;;;;;;21.00;96.00;;;;;;5072030;28;19909;-88
2021/08/05 10:24:09;;;;;;;;;;;21.00;96.40;;;;;;5071959;28;19909;-88
2021/08/05 10:26:35;;;;;;;;;;;20.90;96.30;;;;;;5072014;28;19908;-88
2021/08/05 10:29:01;;;;;;;;;;;20.90;96.30;;;;;;5071712;28;19962;-88
2021/08/05 10:31:26;;;;;;;;;;;20.90;96.30;;;;;;5071739;28;19913;-88
2021/08/05 10:33:52;;;;;;;;;;;20.80;96.40;;;;;;5071822;28;19912;-88
2021/08/05 10:36:18;;;;;;;;;;;20.80;96.20;;;;;;5072854;28;19924;-88
2021/08/05 10:38:43;;;;;;;;;;;20.80;96.30;;;;;;5071851;28;19915;-88
2021/08/05 10:41:09;;;;;;;;;;;20.80;96.20;;;;;;5071451;28;20011;-88
2021/08/05 10:43:35;;;;;;;;;;;20.80;96.00;;;;;;5071766;28;19912;-88
2021/08/05 10:46:01;;;;;;;;;;;20.80;95.50;;;;;;5071695;28;19913;-88
2021/08/05 10:48:27;;;;;;;;;;;20.90;95.50;;;;;;5073032;28;19909;-88
2021/08/05 10:50:55;;;;;;;;;;;20.90;95.50;;;;;;5074154;28;19929;-88
2021/08/05 10:53:36;;;;;;;;;;;20.90;95.80;;;;;;5076158;28;20386;-88
2021/08/05 10:56:18;;;;;;;;;;;20.90;95.80;;;;;;5076360;28;20487;-88
2021/08/05 10:59:02;;;;;;;;;;;20.90;95.80;;;;;;5071547;28;19908;-88
2021/08/05 11:01:47;;;;;;;;;;;20.90;95.90;;;;;;5071769;28;19930;-88
2021/08/05 11:04:46;;;;;;;;;;;21.00;95.70;;;;;;5073030;28;20392;-88
2021/08/05 11:07:26;;;;;;;;;;;21.00;95.60;;;;;;5020817;28;20037;-88
2021/08/05 11:10:11;;;;;;;;;;;21.00;95.60;;;;;;5074856;28;20357;-88
2021/08/05 11:12:41;;;;;;;;;;;21.10;95.30;;;;;;5075096;28;19908;-88
2021/08/05 11:15:23;;;;;;;;;;;21.10;94.80;;;;;;5075071;28;19938;-89
2021/08/05 11:20:36;;;;;;;;;;;21.10;95.00;;;;;;5075769;28;19984;-88
2021/08/05 11:23:02;;;;;;;;;;;21.10;94.60;;;;;;5075372;28;20308;-88
2021/08/05 11:25:47;;;;;;;;;;;21.10;94.20;;;;;;5077189;28;19908;-88
2021/08/05 11:28:22;;;;;;;;;;;21.10;93.60;;;;;;5074957;28;19912;-88
2021/08/05 11:30:49;;;;;;;;;;;21.20;93.60;;;;;;5076530;28;19908;-88
2021/08/05 11:33:33;;;;;;;;;;;21.20;93.80;;;;;;5074489;28;20005;-88
2021/08/05 11:36:15;;;;;;;;;;;21.20;94.00;;;;;;5074734;28;19920;-88
2021/08/05 11:38:59;;;;;;;;;;;21.20;94.20;;;;;;5073922;28;19948;-88
2021/08/05 11:41:44;;;;;;;;;;;21.10;94.10;;;;;;5074492;28;19916;-88
2021/08/05 11:44:19;;;;;;;;;;;21.10;94.30;;;;;;5075109;28;19909;-88
2021/08/05 11:46:47;;;;;;;;;;;21.00;94.50;;;;;;5074604;28;19909;-88
2021/08/05 11:49:33;;;;;;;;;;;21.10;94.10;;;;;;5074249;28;20377;-88
2021/08/05 11:51:59;;;;;;;;;;;21.10;94.10;;;;;;5056248;28;19908;-88
2021/08/05 11:54:24;;;;;;;;;;;21.10;93.90;;;;;;5075021;28;19916;-88
2021/08/05 11:57:00;;;;;;;;;;;21.10;92.60;;;;;;5071610;28;19912;-88
2021/08/05 11:59:34;;;;;;;;;;;21.20;92.60;;;;;;5070969;28;20391;-88
2021/08/05 12:02:14;;;;;;;;;;;21.30;92.40;;;;;;5078836;28;19915;-88
2021/08/05 12:04:39;;;;;;;;;;;21.50;92.20;;;;;;5073674;28;20282;-88
2021/08/05 12:07:23;;;;;;;;;;;21.50;91.80;;;;;;5076135;28;19971;-88
2021/08/05 12:09:50;;;;;;;;;;;21.50;91.80;;;;;;5074571;28;19913;-88
2021/08/05 12:12:16;;;;;;;;;;;21.50;91.60;;;;;;5075933;28;19935;-88
2021/08/05 12:14:52;;;;;;;;;;;21.60;91.20;;;;;;5074365;28;19912;-90
2021/08/05 12:17:31;;;;;;;;;;;21.60;90.10;;;;;;5074617;28;19920;-88
2021/08/05 12:19:56;;;;;;;;;;;21.70;90.20;;;;;;5074247;28;19916;-88
2021/08/05 12:22:33;;;;;;;;;;;21.80;90.30;;;;;;5074689;28;19916;-88
2021/08/05 12:25:02;;;;;;;;;;;21.80;90.10;;;;;;5077171;28;19915;-88
2021/08/05 12:27:29;;;;;;;;;;;21.80;90.10;;;;;;5079993;28;19987;-88
2021/08/05 12:30:07;;;;;;;;;;;21.80;90.20;;;;;;5078189;28;19938;-89
2021/08/05 12:32:33;;;;;;;;;;;21.70;90.40;;;;;;5077582;28;19915;-88
2021/08/05 12:34:59;;;;;;;;;;;21.70;90.10;;;;;;5075166;28;19938;-88
2021/08/05 12:37:24;;;;;;;;;;;21.70;89.90;;;;;;5075693;28;20349;-88
2021/08/05 12:39:50;;;;;;;;;;;21.70;90.00;;;;;;5074190;28;19954;-89
2021/08/05 12:42:17;;;;;;;;;;;21.80;89.50;;;;;;5081148;28;19908;-88
2021/08/05 12:44:43;;;;;;;;;;;21.80;89.80;;;;;;5080213;28;19909;-88
2021/08/05 12:47:09;;;;;;;;;;;21.90;89.00;;;;;;5082187;28;19998;-88
2021/08/05 12:49:37;;;;;;;;;;;22.00;89.60;;;;;;5082510;28;19908;-89
2021/08/05 12:52:03;;;;;;;;;;;22.00;89.90;;;;;;5080752;28;20003;-88
2021/08/05 12:54:29;;;;;;;;;;;22.00;90.10;;;;;;5080695;28;19955;-88
2021/08/05 12:56:56;;;;;;;;;;;22.00;90.10;;;;;;5081176;28;19919;-88
2021/08/05 12:59:25;;;;;;;;;;;22.10;89.80;;;;;;5080583;28;20192;-88
2021/08/05 13:02:04;;;;;;;;;;;22.00;90.20;;;;;;5080966;28;19915;-88
2021/08/05 13:04:32;;;;;;;;;;;22.00;90.30;;;;;;5081424;28;20344;-89
2021/08/05 13:06:57;;;;;;;;;;;22.00;89.60;;;;;;5073497;28;19908;-88
2021/08/05 13:09:24;;;;;;;;;;;22.00;88.60;;;;;;5073196;28;20003;-88
2021/08/05 13:11:50;;;;;;;;;;;22.10;89.20;;;;;;5073543;28;19909;-88
2021/08/05 13:14:35;;;;;;;;;;;22.10;89.60;;;;;;5072992;28;20038;-88
2021/08/05 13:17:01;;;;;;;;;;;22.00;90.00;;;;;;5075333;28;19916;-88
2021/08/05 13:19:27;;;;;;;;;;;22.10;89.90;;;;;;5075349;28;20277;-89
2021/08/05 13:21:53;;;;;;;;;;;22.20;90.10;;;;;;5073739;28;19909;-88
2021/08/05 13:24:23;;;;;;;;;;;22.20;90.20;;;;;;5074437;28;19908;-87
2021/08/05 13:26:50;;;;;;;;;;;22.20;89.90;;;;;;5073690;28;19909;-88
2021/08/05 13:29:34;;;;;;;;;;;22.30;89.30;;;;;;5072979;28;19912;-88
2021/08/05 13:32:00;;;;;;;;;;;22.40;90.00;;;;;;5073006;28;19916;-88
2021/08/05 13:34:25;;;;;;;;;;;22.40;90.00;;;;;;5072989;28;20281;-88
2021/08/05 13:36:51;;;;;;;;;;;22.40;90.00;;;;;;5074027;28;19924;-88
2021/08/05 13:39:16;;;;;;;;;;;22.30;89.80;;;;;;5073858;28;19944;-88
2021/08/05 13:41:42;;;;;;;;;;;22.40;87.90;;;;;;5072956;28;19913;-88
2021/08/05 13:44:07;;;;;;;;;;;22.40;86.50;;;;;;5073015;28;20319;-88
2021/08/05 13:46:33;;;;;;;;;;;22.40;86.90;;;;;;5072972;28;19909;-88
2021/08/05 13:48:58;;;;;;;;;;;22.40;87.30;;;;;;5072490;28;19916;-88
2021/08/05 13:51:24;;;;;;;;;;;22.50;86.90;;;;;;5073992;28;19912;-88
2021/08/05 13:53:50;;;;;;;;;;;22.50;86.70;;;;;;5073764;28;19955;-88
2021/08/05 13:56:16;;;;;;;;;;;22.50;86.40;;;;;;5073326;28;19921;-88
2021/08/05 13:58:42;;;;;;;;;;;22.50;86.20;;;;;;5072526;28;20321;-88
2021/08/05 14:01:08;;;;;;;;;;;22.50;86.70;;;;;;5072453;28;19908;-88
2021/08/05 14:03:34;;;;;;;;;;;22.50;86.50;;;;;;5074310;28;19908;-88
2021/08/05 14:06:00;;;;;;;;;;;22.50;86.40;;;;;;5073162;28;20058;-89
2021/08/05 14:08:26;;;;;;;;;;;22.40;88.30;;;;;;5074045;28;20459;-88
2021/08/05 14:10:51;;;;;;;;;;;22.40;89.30;;;;;;5073492;28;19959;-88
2021/08/05 14:13:17;;;;;;;;;;;22.40;88.80;;;;;;5072968;28;20057;-88
2021/08/05 14:15:42;;;;;;;;;;;22.40;88.50;;;;;;5074430;28;20222;-88
2021/08/05 14:18:08;;;;;;;;;;;22.40;88.20;;;;;;5072838;28;19908;-88
2021/08/05 14:20:34;;;;;;;;;;;22.30;88.40;;;;;;5072962;28;19916;-88
2021/08/05 14:23:00;;;;;;;;;;;22.40;88.60;;;;;;5075022;28;19931;-89
2021/08/05 14:25:25;;;;;;;;;;;22.40;88.70;;;;;;5073501;28;19909;-90
2021/08/05 14:27:51;;;;;;;;;;;22.40;89.10;;;;;;5075920;28;19908;-90
2021/08/05 14:30:16;;;;;;;;;;;22.40;87.30;;;;;;5075067;28;19908;-88
2021/08/05 14:32:42;;;;;;;;;;;22.40;87.30;;;;;;5075650;28;19916;-89
2021/08/05 14:35:08;;;;;;;;;;;22.50;87.30;;;;;;5074231;28;19912;-89
2021/08/05 14:37:34;;;;;;;;;;;22.90;86.70;;;;;;5081042;22;19925;-82